Time;durP1;ratioP1;P1;durP2;ratioP2;P2;SDS_P1;SDS_P2;PMS_P1;PMS_P2;Temp;Humidity;BMP_temperature;BMP_pressure;BME280_temperature;BME280_humidity;BME280_pressure;Samples;Min_cycle;Max_cycle;Signal;HPM_P1;HPM_P2
2022/12/16 00:01:21;;;;;;;1.85;1.67;;;;;;;0.02;100.00;100943.03;5042106;28;20036;-73
2022/12/16 00:03:49;;;;;;;4.03;1.95;;;;;;;0.02;100.00;100935.28;5041965;28;20021;-73
2022/12/16 00:06:15;;;;;;;7.68;1.60;;;;;;;-0.01;100.00;100939.47;5048250;28;20242;-73
2022/12/16 00:08:40;;;;;;;7.38;2.30;;;;;;;-0.01;100.00;100941.16;5068163;28;20495;-73
2022/12/16 00:11:06;;;;;;;5.18;2.40;;;;;;;-0.06;100.00;100943.44;5039887;28;20120;-72
2022/12/16 00:13:34;;;;;;;6.32;2.03;;;;;;;-0.10;100.00;100938.00;5041604;28;20029;-73
2022/12/16 00:16:04;;;;;;;4.72;1.80;;;;;;;-0.08;100.00;100944.16;5042745;28;20033;-73
2022/12/16 00:18:30;;;;;;;7.22;1.90;;;;;;;-0.08;100.00;100944.16;5063717;28;20083;-72
2022/12/16 00:20:55;;;;;;;6.32;1.75;;;;;;;-0.06;100.00;100943.44;5044406;28;20028;-73
2022/12/16 00:23:21;;;;;;;6.03;2.00;;;;;;;-0.08;100.00;100942.47;5050220;28;20044;-73
2022/12/16 00:25:47;;;;;;;3.80;2.13;;;;;;;-0.10;100.00;100945.78;5049268;28;20037;-73
2022/12/16 00:28:14;;;;;;;2.88;1.50;;;;;;;-0.14;100.00;100938.63;5048065;28;20370;-73
2022/12/16 00:30:44;;;;;;;3.28;2.00;;;;;;;-0.17;100.00;100936.75;5045071;28;20100;-71
2022/12/16 00:33:09;;;;;;;6.50;1.90;;;;;;;-0.19;100.00;100940.91;5042294;28;20397;-72
2022/12/16 00:35:35;;;;;;;3.10;1.70;;;;;;;-0.20;100.00;100939.16;5045592;28;20052;-74
2022/12/16 00:38:01;;;;;;;5.18;2.08;;;;;;;-0.19;100.00;100940.91;5057054;28;20507;-73
2022/12/16 00:40:26;;;;;;;4.35;1.95;;;;;;;-0.19;100.00;100948.66;5048546;28;20033;-73
2022/12/16 00:42:52;;;;;;;10.75;2.33;;;;;;;-0.20;100.00;100954.66;5045256;28;20079;-71
2022/12/16 00:45:17;;;;;;;5.82;1.77;;;;;;;-0.19;100.00;100961.59;5051751;28;20425;-70
2022/12/16 00:47:43;;;;;;;7.38;2.08;;;;;;;-0.20;100.00;100962.44;5062801;28;20023;-72
2022/12/16 00:50:10;;;;;;;7.25;1.90;;;;;;;-0.23;100.00;100960.53;5052508;28;20146;-73
2022/12/16 00:52:35;;;;;;;3.72;1.77;;;;;;;-0.22;100.00;100972.69;5062410;28;20365;-72
2022/12/16 00:55:01;;;;;;;4.75;2.13;;;;;;;-0.24;100.00;100974.25;5047198;28;20035;-73
2022/12/16 00:57:26;;;;;;;4.32;2.08;;;;;;;-0.26;100.00;100973.28;5052434;28;20447;-73
2022/12/16 00:59:52;;;;;;;9.40;2.33;;;;;;;-0.28;100.00;100968.81;5052255;28;20049;-72
2022/12/16 01:02:17;;;;;;;6.25;2.00;;;;;;;-0.30;100.00;100971.28;5052003;28;20029;-72
2022/12/16 01:04:42;;;;;;;8.32;2.17;;;;;;;-0.30;100.00;100968.69;5054417;28;20021;-73
2022/12/16 01:07:08;;;;;;;13.35;2.10;;;;;;;-0.33;100.00;100967.63;5053335;28;20033;-72
2022/12/16 01:09:34;;;;;;;6.82;2.28;;;;;;;-0.39;100.00;100974.19;5040936;28;20104;-74
2022/12/16 01:11:59;;;;;;;5.78;2.13;;;;;;;-0.41;100.00;100970.59;5047350;28;20029;-73
2022/12/16 01:14:25;;;;;;;3.05;1.95;;;;;;;-0.44;100.00;100975.59;5052792;28;20021;-73
2022/12/16 01:16:50;;;;;;;12.45;2.72;;;;;;;-0.46;100.00;100982.38;5043906;28;20126;-73
2022/12/16 01:19:16;;;;;;;12.52;2.03;;;;;;;-0.49;100.00;100976.97;5046179;28;20118;-75
2022/12/16 01:21:41;;;;;;;4.85;2.35;;;;;;;-0.51;100.00;100989.81;5051819;28;20124;-73
2022/12/16 01:24:08;;;;;;;7.45;2.90;;;;;;;-0.53;100.00;100987.94;5048406;28;20052;-73
2022/12/16 01:26:33;;;;;;;5.95;1.98;;;;;;;-0.55;100.00;100990.41;5052157;28;20413;-72
2022/12/16 01:28:59;;;;;;;7.15;3.15;;;;;;;-0.56;100.00;100992.91;5046644;28;20028;-73
2022/12/16 01:31:24;;;;;;;9.85;3.33;;;;;;;-0.58;100.00;100998.00;5042812;28;20033;-73
2022/12/16 01:33:50;;;;;;;8.23;2.58;;;;;;;-0.61;100.00;101004.63;5061600;28;20086;-73
2022/12/16 01:36:15;;;;;;;14.02;2.80;;;;;;;-0.65;100.00;101010.41;5048245;28;20044;-73
2022/12/16 01:38:43;;;;;;;21.75;3.05;;;;;;;-0.70;100.00;101008.44;5038514;28;20050;-73
2022/12/16 01:41:09;;;;;;;12.65;2.63;;;;;;;-0.75;100.00;101017.56;5041649;28;20025;-73
2022/12/16 01:43:37;;;;;;;9.75;2.60;;;;;;;-0.78;100.00;101017.38;5045984;28;20028;-73
2022/12/16 01:46:14;;;;;;;5.03;2.05;;;;;;;-0.81;100.00;101019.75;5064952;28;20036;-73
2022/12/16 01:48:52;;;;;;;3.60;2.05;;;;;;;-0.81;100.00;101030.09;5051584;28;20040;-73
2022/12/16 01:51:22;;;;;;;5.80;1.67;;;;;;;-0.84;100.00;101040.25;5038834;28;20069;-73
2022/12/16 01:53:51;;;;;;;13.65;2.40;;;;;;;-0.88;100.00;101036.56;5039267;28;20028;-73
2022/12/16 01:56:20;;;;;;;6.28;2.17;;;;;;;-0.89;100.00;101039.03;5048232;28;20120;-72
2022/12/16 01:58:46;;;;;;;10.30;2.30;;;;;;;-0.89;100.00;101036.47;5041166;28;20049;-74
2022/12/16 02:01:13;;;;;;;6.15;2.00;;;;;;;-0.90;100.00;101051.03;5044447;28;20025;-73
2022/12/16 02:03:41;;;;;;;8.80;2.20;;;;;;;-0.93;100.00;101039.63;5041333;28;20373;-74
2022/12/16 02:06:06;;;;;;;10.02;2.05;;;;;;;-0.93;100.00;101044.81;5057510;28;20077;-72
2022/12/16 02:08:32;;;;;;;5.60;2.25;;;;;;;-0.93;100.00;101045.69;5049864;28;20037;-74
2022/12/16 02:11:13;;;;;;;3.10;1.63;;;;;;;-0.90;100.00;101051.03;5051079;28;20036;-73
2022/12/16 02:13:59;;;;;;;12.18;2.25;;;;;;;-0.92;100.00;101050.06;5044990;28;20040;-72
2022/12/16 02:16:52;;;;;;;18.27;2.10;;;;;;;-0.93;100.00;101065.47;5039747;28;20041;-72
2022/12/16 02:19:38;;;;;;;8.23;1.42;;;;;;;-0.95;100.00;101067.03;5048839;28;20491;-71
2022/12/16 02:22:35;;;;;;;2.92;1.40;;;;;;;-0.99;100.00;101065.03;5052146;28;20472;-74
2022/12/16 02:25:25;;;;;;;4.40;1.73;;;;;;;-0.99;100.00;101070.22;5043780;28;20025;-72
2022/12/16 02:27:59;;;;;;;6.32;1.67;;;;;;;-1.03;100.00;101067.44;5047767;28;20060;-72
2022/12/16 02:30:53;;;;;;;13.52;1.65;;;;;;;-1.06;100.00;101069.81;5041621;28;20175;-71
2022/12/16 02:33:49;;;;;;;13.05;1.75;;;;;;;-1.09;100.00;101058.38;5045602;28;20691;-71
2022/12/16 02:36:34;;;;;;;3.17;1.50;;;;;;;-1.12;100.00;101069.38;5038163;28;20047;-73
2022/12/16 02:39:15;;;;;;;3.47;1.67;;;;;;;-1.15;100.00;101068.28;5045714;28;20029;-71
2022/12/16 02:41:48;;;;;;;12.38;2.00;;;;;;;-1.19;100.00;101065.50;5046094;28;20033;-73
2022/12/16 02:44:16;;;;;;;6.93;1.67;;;;;;;-1.19;100.00;101072.38;5046266;28;20040;-72
2022/12/16 02:46:51;;;;;;;3.63;1.42;;;;;;;-1.18;100.00;101071.56;5040993;28;20052;-73
2022/12/16 02:49:17;;;;;;;6.88;1.70;;;;;;;-1.20;100.00;101073.16;5049256;28;20071;-73
2022/12/16 02:51:43;;;;;;;9.85;1.85;;;;;;;-1.23;100.00;101075.53;5050468;28;20442;-74
2022/12/16 02:54:10;;;;;;;3.95;1.40;;;;;;;-1.28;100.00;101075.19;5050356;28;20540;-73
2022/12/16 02:57:06;;;;;;;8.75;2.05;;;;;;;-1.30;100.00;101078.47;5060766;28;20028;-72
2022/12/16 02:59:37;;;;;;;10.68;1.77;;;;;;;-1.31;100.00;101084.44;5053717;28;20065;-72
2022/12/16 03:02:21;;;;;;;11.18;2.17;;;;;;;-1.32;100.00;101090.38;5041575;28;20032;-73
2022/12/16 03:04:53;;;;;;;11.02;1.67;;;;;;;-1.36;100.00;101090.19;5050258;28;20029;-73
2022/12/16 03:07:23;;;;;;;9.30;1.58;;;;;;;-1.37;100.00;101101.28;5046637;28;20025;-71
2022/12/16 03:09:50;;;;;;;6.53;1.80;;;;;;;-1.40;100.00;101103.69;5051553;28;20036;-72
2022/12/16 03:12:18;;;;;;;7.15;1.85;;;;;;;-1.42;100.00;101100.06;5042490;28;20107;-71
2022/12/16 03:14:47;;;;;;;6.68;1.90;;;;;;;-1.45;100.00;101105.03;5043705;28;20029;-72
2022/12/16 03:17:14;;;;;;;8.40;2.67;;;;;;;-1.45;100.00;101111.88;5050156;28;20032;-73
2022/12/16 03:19:45;;;;;;;5.30;1.80;;;;;;;-1.43;100.00;101106.03;5041532;28;20469;-72
2022/12/16 03:22:20;;;;;;;10.23;2.10;;;;;;;-1.40;100.00;101108.84;5054593;28;20031;-74
2022/12/16 03:24:46;;;;;;;4.78;2.13;;;;;;;-1.39;100.00;101100.28;5057924;28;20048;-72
2022/12/16 03:27:25;;;;;;;10.55;1.80;;;;;;;-1.41;100.00;101109.63;5046854;28;20060;-72
2022/12/16 03:30:09;;;;;;;2.38;1.73;;;;;;;-1.41;100.00;101108.69;5060150;28;20039;-72
2022/12/16 03:32:46;;;;;;;8.18;1.90;;;;;;;-1.38;100.00;101108.94;5051426;28;20022;-72
2022/12/16 03:35:19;;;;;;;8.48;1.70;;;;;;;-1.39;100.00;101112.31;5046525;28;20036;-72
2022/12/16 03:37:48;;;;;;;12.05;1.80;;;;;;;-1.44;100.00;101114.59;5048580;28;20044;-72
2022/12/16 03:40:14;;;;;;;9.77;2.05;;;;;;;-1.46;100.00;101112.69;5046849;28;20450;-72
2022/12/16 03:42:42;;;;;;;10.88;1.70;;;;;;;-1.48;100.00;101120.28;5048028;28;20032;-72
2022/12/16 03:45:12;;;;;;;5.22;1.88;;;;;;;-1.52;100.00;101123.44;5053892;28;20048;-72
2022/12/16 03:47:38;;;;;;;14.48;2.55;;;;;;;-1.55;100.00;101128.41;5057276;28;20091;-72
2022/12/16 03:50:04;;;;;;;8.45;1.52;;;;;;;-1.58;100.00;101130.78;5056155;28;20072;-71
2022/12/16 03:52:30;;;;;;;9.73;2.03;;;;;;;-1.61;100.00;101133.16;5057903;28;20365;-71
2022/12/16 03:54:55;;;;;;;5.22;1.38;;;;;;;-1.64;100.00;101130.34;5050598;28;20031;-72
2022/12/16 03:57:21;;;;;;;2.97;1.42;;;;;;;-1.64;100.00;101144.16;5050611;28;20033;-72
2022/12/16 03:59:46;;;;;;;10.93;2.38;;;;;;;-1.67;100.00;101143.91;5048513;28;20033;-72
2022/12/16 04:02:11;;;;;;;5.97;1.63;;;;;;;-1.71;100.00;101142.81;5056124;28;20083;-71
2022/12/16 04:04:37;;;;;;;5.45;1.63;;;;;;;-1.71;100.00;101152.22;5053139;28;20040;-73
2022/12/16 04:07:20;;;;;;;6.55;2.15;;;;;;;-1.74;100.00;101146.84;5048195;28;20031;-73
2022/12/16 04:09:47;;;;;;;14.65;2.30;;;;;;;-1.79;100.00;101148.19;5047507;28;20064;-71
2022/12/16 04:25:59;;;;;;;9.07;1.92;;;;;;;-1.94;100.00;101150.59;5049154;28;20040;-71
2022/12/16 04:28:24;;;;;;;7.63;2.40;;;;;;;-1.95;100.00;101160.00;5048548;28;20025;-72
2022/12/16 04:30:49;;;;;;;9.13;2.78;;;;;;;-1.93;100.00;101167.84;5052262;28;22085;-72
